Terminal Aerodrome Forecast
Issued by NWS

Home | Current Version | Previous Version | Text Only | Print | Product List | Glossary On
Versions: 1 2 3 4 5 6 7 8 9 10 11 12 13 14 15 16 17
000
FTUS46 KMFR 291738
TAFOTH
TAF
KOTH 291738Z 2918/3018 20020G30KT P6SM VCSH SCT025 BKN100
     FM300300 19012G20KT P6SM -RA BKN025 OVC035
     FM300600 19010G18KT 4SM RA BKN015 OVC025
     FM301200 23010KT 4SM -SHRA BKN015 OVC025=

USA.gov is the U.S. government's official web portal to all federal, state and local government web resources and services.